.
WxDataArchive / Data Records for 2009-08-28
2009-08-27 August 2009 2009-08-29

Data Records for Friday, 28 August 2009

Time	Temp	Chill	HIndex	Humid	Dewpt	 Wind 	HiWind	WindDir	Rain 	Barom 
-----	----	-----	------	-----	-----	------	------	-------	-----	----- 
00:00	62.1	62.1	62.1	87	58.2	1	3	112	0.00	30.080 
00:05	62.1	62.1	62.1	88	58.5	1	3	135	0.00	30.080 
00:10	62.0	62.0	62.0	88	58.4	1	3	135	0.00	30.080 
00:15	62.0	62.0	62.0	88	58.4	0	2	90	0.00	30.075 
00:20	61.8	61.8	61.8	88	58.2	0	3	90	0.00	30.075 
00:25	61.6	61.6	61.6	89	58.3	1	3	68	0.00	30.075 
00:30	61.6	61.6	61.6	89	58.3	1	3	112	0.00	30.067 
00:35	61.8	61.8	61.8	89	58.5	1	4	112	0.00	30.067 
00:40	61.8	61.8	61.8	89	58.5	1	3	112	0.00	30.067 
00:45	61.8	61.8	61.8	90	58.8	1	3	112	0.00	30.060 
00:50	62.0	62.0	62.0	90	59.0	1	6	112	0.00	30.060 
00:55	62.0	62.0	62.0	90	59.0	1	4	90	0.00	30.060 
01:00	62.1	62.1	62.1	90	59.1	1	4	90	0.00	30.061 
01:05	62.1	62.1	62.1	90	59.1	2	4	112	0.00	30.061 
01:10	62.3	62.3	62.3	90	59.3	1	4	90	0.00	30.061 
01:15	62.3	62.3	62.3	90	59.3	2	5	90	0.00	30.059 
01:20	62.4	62.4	62.4	90	59.4	2	5	90	0.00	30.059 
01:25	62.4	62.4	62.4	90	59.4	1	4	90	0.00	30.059 
01:30	62.6	62.6	62.6	90	59.6	2	5	90	0.00	30.047 
01:35	62.6	62.6	62.6	90	59.6	2	6	112	0.00	30.047 
01:40	62.6	62.6	62.6	90	59.6	2	5	112	0.00	30.047 
01:45	62.6	62.6	62.6	90	59.6	1	5	68	0.00	30.050 
01:50	62.4	62.4	62.4	90	59.4	2	5	90	0.00	30.050 
01:55	62.4	62.4	62.4	90	59.4	2	6	90	0.00	30.050 
02:00	62.4	62.4	62.4	91	59.7	2	5	90	0.00	30.048 
02:05	62.4	62.4	62.4	91	59.7	1	3	68	0.00	30.048 
02:10	62.4	62.4	62.4	91	59.7	1	3	68	0.00	30.048 
02:15	62.4	62.4	62.4	91	59.7	1	3	68	0.00	30.047 
02:20	62.3	62.3	62.3	91	59.6	2	5	90	0.00	30.047 
02:25	62.3	62.3	62.3	91	59.6	3	6	90	0.00	30.047 
02:30	62.3	62.3	62.3	91	59.6	1	5	90	0.00	30.037 
02:35	62.3	62.3	62.3	91	59.6	1	4	112	0.00	30.037 
02:40	62.1	62.1	62.1	92	59.7	1	4	112	0.00	30.037 
02:45	62.1	62.1	62.1	92	59.7	1	4	112	0.00	30.030 
02:50	62.0	62.0	62.0	92	59.6	1	4	112	0.00	30.030 
02:55	62.0	62.0	62.0	92	59.6	1	5	112	0.00	30.030 
03:00	61.8	61.8	61.8	92	59.4	1	3	112	0.00	30.026 
03:05	62.0	62.0	62.0	92	59.6	1	4	112	0.00	30.026 
03:10	62.0	62.0	62.0	93	59.9	1	3	90	0.00	30.026 
03:15	62.0	62.0	62.0	93	59.9	1	4	112	0.00	30.014 
03:20	62.0	62.0	62.0	93	59.9	1	4	112	0.00	30.014 
03:25	62.1	62.1	62.1	93	60.0	1	2	112	0.00	30.014 
03:30	62.0	62.0	62.0	93	59.9	1	4	112	0.00	30.013 
03:35	62.0	62.0	62.0	93	59.9	1	3	112	0.00	30.013 
03:40	62.0	62.0	62.0	93	59.9	1	6	112	0.00	30.013 
03:45	62.0	62.0	62.0	93	59.9	1	4	90	0.00	30.010 
03:50	61.8	61.8	61.8	93	59.8	1	3	90	0.00	30.010 
03:55	61.8	61.8	61.8	93	59.8	1	3	90	0.00	30.010 
04:00	61.8	61.8	61.8	93	59.8	0	2	90	0.00	30.007 
04:05	61.8	61.8	61.8	93	59.8	1	2	90	0.00	30.007 
04:10	61.8	61.8	61.8	93	59.8	1	3	90	0.00	30.007 
04:15	61.6	61.6	61.6	94	59.9	1	3	90	0.00	30.006 
04:20	61.6	61.6	61.6	94	59.9	0	2	90	0.00	30.006 
04:25	61.6	61.6	61.6	94	59.9	0	2	90	0.00	30.006 
04:30	61.5	61.5	61.5	94	59.8	1	3	90	0.00	30.005 
04:35	61.5	61.5	61.5	94	59.8	1	3	90	0.00	30.005 
04:40	61.5	61.5	61.5	94	59.8	1	2	90	0.00	30.005 
04:45	61.5	61.5	61.5	94	59.8	0	2	90	0.00	30.001 
04:50	61.5	61.5	61.5	94	59.8	0	2	90	0.00	30.001 
04:55	61.5	61.5	61.5	94	59.8	0	0	---	0.00	30.001 
05:00	61.5	61.5	61.5	94	59.8	0	1	90	0.00	29.999 
05:05	61.6	61.6	61.6	94	59.9	0	1	90	0.00	29.999 
05:10	61.6	61.6	61.6	94	59.9	0	1	90	0.00	29.999 
05:15	61.8	61.8	61.8	94	60.1	0	1	90	0.00	29.998 
05:20	61.8	61.8	61.8	95	60.3	0	1	90	0.00	29.998 
05:25	61.8	61.8	61.8	95	60.3	0	1	90	0.00	29.998 
05:30	61.8	61.8	61.8	95	60.3	0	2	90	0.00	29.999 
05:35	62.0	62.0	62.0	95	60.5	0	2	90	0.00	29.999 
05:40	62.0	62.0	62.0	95	60.5	0	2	90	0.00	29.999 
05:45	62.1	62.1	62.1	95	60.6	0	2	90	0.00	29.992 
05:50	62.1	62.1	62.1	95	60.6	0	2	90	0.00	29.992 
05:55	62.3	62.3	62.3	95	60.8	0	1	90	0.00	29.992 
06:00	62.3	62.3	62.3	95	60.8	0	1	90	0.00	29.993 
06:05	62.4	62.4	62.4	95	60.9	0	2	90	0.09	29.993 
06:10	62.4	62.4	62.4	95	60.9	1	3	90	0.02	29.993 
06:15	62.4	62.4	62.4	95	60.9	1	3	90	0.00	29.987 
06:20	62.4	62.4	62.4	95	60.9	1	4	90	0.00	29.987 
06:25	62.4	62.4	62.4	95	60.9	0	3	90	0.00	29.987 
06:30	62.6	62.6	62.6	95	61.1	0	2	90	0.00	29.984 
06:35	62.4	62.4	62.4	95	60.9	0	2	90	0.00	29.984 
06:40	62.6	62.6	62.6	95	61.1	0	1	90	0.00	29.984 
06:45	62.6	62.6	62.6	96	61.4	0	2	90	0.00	29.984 
06:50	62.6	62.6	62.6	96	61.4	0	2	90	0.00	29.984 
06:55	62.6	62.6	62.6	96	61.4	0	1	90	0.00	29.984 
07:00	62.6	62.6	62.6	96	61.4	0	2	90	0.00	29.981 
07:05	62.6	62.6	62.6	96	61.4	0	2	90	0.00	29.981 
07:10	62.6	62.6	62.6	96	61.4	0	3	90	0.00	29.981 
07:15	62.6	62.6	62.6	96	61.4	0	2	90	0.00	29.982 
07:20	62.6	62.6	62.6	96	61.4	0	2	90	0.00	29.982 
07:25	62.6	62.6	62.6	96	61.4	0	1	90	0.00	29.982 
07:30	62.4	62.4	62.4	96	61.2	1	3	112	0.00	29.979 
07:35	62.4	62.4	62.4	96	61.2	0	3	112	0.00	29.979 
07:40	62.4	62.4	62.4	96	61.2	0	2	112	0.00	29.979 
07:45	62.4	62.4	62.4	96	61.2	0	1	112	0.00	29.988 
07:50	62.4	62.4	62.4	96	61.2	1	2	112	0.00	29.988 
07:55	62.4	62.4	62.4	96	61.2	0	1	112	0.00	29.988 
08:00	62.4	62.4	62.4	96	61.2	0	0	---	0.00	29.991 
08:05	62.4	62.4	62.4	96	61.2	0	1	112	0.00	29.991 
08:10	62.4	62.4	62.4	96	61.2	0	2	112	0.00	29.991 
08:15	62.4	62.4	62.4	96	61.2	0	0	---	0.00	29.996 
08:20	62.6	62.6	62.6	96	61.4	0	1	112	0.00	29.996 
08:25	62.6	62.6	62.6	96	61.4	0	1	112	0.00	29.996 
08:30	62.6	62.6	62.6	96	61.4	0	1	112	0.00	29.989 
08:35	62.6	62.6	62.6	96	61.4	1	4	112	0.00	29.989 
08:40	62.7	62.7	62.7	96	61.5	0	3	158	0.00	29.989 
08:45	62.9	62.9	62.9	96	61.7	0	3	135	0.00	29.980 
08:50	62.9	62.9	62.9	96	61.7	0	3	45	0.00	29.980 
08:55	63.1	63.1	63.1	96	61.9	1	2	45	0.00	29.980 
09:00	63.1	63.1	63.1	96	61.9	1	3	68	0.00	29.973 
09:05	63.1	63.1	63.1	96	61.9	0	2	68	0.00	29.973 
09:10	63.2	63.2	63.2	96	62.0	0	2	68	0.00	29.973 
09:15	63.1	63.1	63.1	96	61.9	1	4	22	0.00	29.973 
09:20	63.1	63.1	63.1	96	61.9	1	4	112	0.00	29.973 
09:25	63.2	63.2	63.2	96	62.0	1	3	112	0.00	29.973 
09:30	63.2	63.2	63.2	96	62.0	1	4	135	0.00	29.966 
09:35	63.2	63.2	63.2	96	62.0	2	5	112	0.00	29.966 
09:40	63.4	63.4	63.4	96	62.2	0	3	112	0.00	29.966 
09:45	63.5	63.5	63.5	96	62.3	1	4	90	0.00	29.962 
09:50	63.7	63.7	63.7	96	62.5	1	3	90	0.00	29.962 
09:55	63.9	63.9	63.9	96	62.7	1	5	112	0.00	29.962 
10:00	63.9	63.9	63.9	95	62.4	1	3	112	0.00	29.964 
10:05	63.9	63.9	63.9	95	62.4	2	4	90	0.00	29.964 
10:10	63.9	63.9	63.9	95	62.4	2	5	90	0.01	29.964 
10:15	63.9	63.9	63.9	95	62.4	2	4	90	0.00	29.965 
10:20	63.9	63.9	63.9	95	62.4	1	4	90	0.00	29.965 
10:25	64.0	64.0	64.0	94	62.2	1	4	90	0.00	29.965 
10:30	64.0	64.0	64.0	94	62.2	2	6	90	0.00	29.963 
10:35	64.2	64.2	64.2	94	62.4	1	4	90	0.00	29.963 
10:40	64.3	64.3	64.3	94	62.5	2	5	90	0.00	29.963 
10:45	64.5	64.5	64.5	94	62.7	1	4	112	0.00	29.953 
10:50	64.7	64.7	64.7	94	62.9	1	6	112	0.00	29.953 
10:55	64.7	64.7	64.7	93	62.6	1	5	90	0.00	29.953 
11:00	64.8	64.8	64.8	93	62.7	1	5	90	0.00	29.953 
11:05	65.0	65.0	65.0	93	62.9	1	3	90	0.00	29.953 
11:10	65.0	65.0	65.0	92	62.6	2	5	90	0.00	29.953 
11:15	65.2	65.2	65.2	92	62.8	3	6	90	0.00	29.953 
11:20	65.5	65.5	65.5	92	63.1	1	3	90	0.00	29.953 
11:25	65.5	65.5	65.5	91	62.8	2	7	90	0.00	29.953 
11:30	65.6	65.6	65.6	91	62.9	2	4	90	0.00	29.955 
11:35	65.6	65.6	65.6	91	62.9	2	4	90	0.00	29.955 
11:40	65.6	65.6	65.6	91	62.9	2	6	90	0.00	29.955 
11:45	65.6	65.6	65.6	91	62.9	1	4	112	0.00	29.958 
11:50	65.8	65.8	65.8	92	63.4	1	5	112	0.00	29.958 
11:55	65.8	65.8	65.8	92	63.4	1	5	135	0.00	29.958 
12:00	65.6	65.6	65.6	92	63.2	2	4	90	0.00	29.953 
12:05	65.6	65.6	65.6	92	63.2	1	4	90	0.00	29.953 
12:10	65.6	65.6	65.6	92	63.2	1	3	90	0.00	29.953 
12:15	65.6	65.6	65.6	92	63.2	1	4	112	0.00	29.949 
12:20	65.6	65.6	65.6	92	63.2	1	4	112	0.00	29.949 
12:25	65.6	65.6	65.6	92	63.2	1	4	45	0.00	29.949 
12:30	65.6	65.6	65.6	93	63.5	1	3	45	0.00	29.946 
12:35	65.6	65.6	65.6	93	63.5	0	1	45	0.00	29.946 
12:40	65.6	65.6	65.6	93	63.5	0	2	45	0.00	29.946 
12:45	65.6	65.6	65.6	93	63.5	0	0	---	0.00	29.955 
12:50	65.6	65.6	65.6	93	63.5	0	1	45	0.00	29.955 
12:55	65.6	65.6	65.6	93	63.5	0	2	45	0.00	29.955 
13:00	65.6	65.6	65.6	93	63.5	0	1	45	0.00	29.943 
13:05	65.6	65.6	65.6	93	63.5	0	1	45	0.00	29.943 
13:10	65.6	65.6	65.6	94	63.8	1	3	45	0.00	29.943 
13:15	65.6	65.6	65.6	94	63.8	1	4	68	0.00	29.932 
13:20	65.6	65.6	65.6	94	63.8	1	3	68	0.00	29.932 
13:25	65.8	65.8	65.8	94	64.0	1	3	68	0.00	29.932 
13:30	65.8	65.8	65.8	95	64.3	1	3	68	0.01	29.920 
13:35	66.0	66.0	66.0	95	64.5	1	3	68	0.00	29.920 
13:40	66.0	66.0	66.0	95	64.5	0	1	112	0.00	29.920 
13:45	66.0	66.0	66.0	95	64.5	0	2	112	0.00	29.923 
13:50	66.0	66.0	66.0	95	64.5	0	2	112	0.00	29.923 
13:55	66.0	66.0	66.0	95	64.5	0	1	112	0.00	29.923 
14:00	66.0	66.0	66.0	95	64.5	0	1	112	0.00	29.922 
14:05	66.1	66.1	66.1	95	64.6	0	0	---	0.00	29.922 
14:10	66.3	66.3	66.3	95	64.8	0	0	---	0.00	29.922 
14:15	66.3	66.3	66.3	95	64.8	0	0	---	0.01	29.926 
14:20	66.3	66.3	66.3	95	64.8	0	0	---	0.01	29.926 
14:25	66.4	66.4	66.4	95	64.9	0	0	---	0.00	29.926 
14:30	66.6	66.6	66.6	95	65.1	0	1	112	0.00	29.915 
14:35	66.8	66.8	66.8	95	65.3	0	1	112	0.00	29.915 
14:40	66.6	66.6	66.6	95	65.1	0	2	112	0.00	29.915 
14:45	66.4	66.4	66.4	95	64.9	0	1	112	0.01	29.908 
14:50	66.6	66.6	66.6	95	65.1	0	0	---	0.01	29.908 
14:55	66.6	66.6	66.6	95	65.1	0	1	112	0.02	29.908 
15:00	66.6	66.6	66.6	95	65.1	0	0	---	0.00	29.900 
15:05	66.6	66.6	66.6	95	65.1	0	0	---	0.01	29.900 
15:10	66.6	66.6	66.6	95	65.1	0	1	112	0.00	29.900 
15:15	66.6	66.6	66.6	95	65.1	0	0	---	0.00	29.900 
15:20	66.8	66.8	66.8	95	65.3	0	0	---	0.00	29.900 
15:25	66.8	66.8	66.8	95	65.3	0	0	---	0.00	29.900 
15:30	66.9	66.9	66.9	95	65.4	0	0	---	0.00	29.892 
15:35	66.9	66.9	66.9	95	65.4	0	1	112	0.00	29.892 
15:40	66.8	66.8	66.8	95	65.3	1	2	112	0.01	29.892 
15:45	66.8	66.8	66.8	95	65.3	0	1	112	0.06	29.890 
15:50	66.8	66.8	66.8	95	65.3	0	2	112	0.04	29.890 
15:55	66.6	66.6	66.6	95	65.1	0	1	112	0.00	29.890 
16:00	66.6	66.6	66.6	96	65.4	0	1	112	0.01	29.883 
16:05	66.8	66.8	66.8	96	65.6	0	0	---	0.01	29.883 
16:10	66.8	66.8	66.8	96	65.6	0	1	112	0.01	29.883 
16:15	66.8	66.8	66.8	96	65.6	0	1	112	0.00	29.868 
16:20	66.9	66.9	66.9	96	65.7	0	0	---	0.00	29.868 
16:25	66.9	66.9	66.9	96	65.7	0	0	---	0.00	29.868 
16:30	66.8	66.8	66.8	96	65.6	0	1	112	0.00	29.868 
16:35	66.9	66.9	66.9	96	65.7	0	1	112	0.00	29.868 
16:40	66.9	66.9	66.9	96	65.7	0	0	---	0.00	29.868 
16:45	66.9	66.9	66.9	96	65.7	0	1	112	0.00	29.872 
16:50	67.1	67.1	67.1	96	65.9	0	1	112	0.00	29.872 
16:55	67.1	67.1	67.1	96	65.9	0	1	112	0.00	29.872 
17:00	67.1	67.1	67.1	96	65.9	0	1	112	0.00	29.875 
17:05	67.1	67.1	67.1	96	65.9	0	2	112	0.00	29.875 
17:10	67.1	67.1	67.1	96	65.9	0	1	112	0.00	29.875 
17:15	67.1	67.1	67.1	96	65.9	0	1	112	0.00	29.868 
17:20	67.3	67.3	67.3	96	66.1	0	1	112	0.00	29.868 
17:25	67.1	67.1	67.1	96	65.9	0	1	112	0.00	29.868 
17:30	67.4	67.4	67.4	96	66.2	0	1	112	0.00	29.869 
17:35	67.3	67.3	67.3	96	66.1	0	1	112	0.00	29.869 
17:40	67.3	67.3	67.3	96	66.1	0	1	112	0.00	29.869 
17:45	67.3	67.3	67.3	96	66.1	0	1	112	0.00	29.867 
17:50	67.3	67.3	67.3	96	66.1	0	1	112	0.00	29.867 
17:55	67.4	67.4	67.4	96	66.2	0	0	---	0.00	29.867 
18:00	67.4	67.4	67.4	96	66.2	0	0	---	0.00	29.868 
18:05	67.3	67.3	67.3	96	66.1	0	1	112	0.00	29.868 
18:10	67.3	67.3	67.3	96	66.1	0	0	---	0.00	29.868 
18:15	67.3	67.3	67.3	96	66.1	0	0	---	0.00	29.857 
18:20	67.3	67.3	67.3	96	66.1	0	0	---	0.00	29.857 
18:25	67.3	67.3	67.3	96	66.1	0	0	---	0.00	29.857 
18:30	67.1	67.1	67.1	96	65.9	0	0	---	0.00	29.861 
18:35	67.1	67.1	67.1	96	65.9	0	0	---	0.00	29.861 
18:40	67.1	67.1	67.1	96	65.9	0	0	---	0.00	29.861 
18:45	67.1	67.1	67.1	96	65.9	0	0	---	0.00	29.853 
18:50	67.3	67.3	67.3	96	66.1	0	0	---	0.00	29.853 
18:55	67.1	67.1	67.1	96	65.9	0	0	---	0.00	29.853 
19:00	67.1	67.1	67.1	95	65.6	0	0	---	0.00	29.854 
19:05	67.3	67.3	67.3	96	66.1	0	0	---	0.00	29.854 
19:10	67.3	67.3	67.3	96	66.1	0	0	---	0.00	29.854 
19:15	67.4	67.4	67.4	96	66.2	0	0	---	0.00	29.852 
19:20	67.4	67.4	67.4	95	65.9	0	0	---	0.00	29.852 
19:25	67.3	67.3	67.3	95	65.8	0	0	---	0.00	29.852 
19:30	67.3	67.3	67.3	95	65.8	0	0	---	0.00	29.844 
19:35	67.3	67.3	67.3	95	65.8	0	0	---	0.00	29.844 
19:40	67.3	67.3	67.3	95	65.8	0	0	---	0.00	29.844 
19:45	67.3	67.3	67.3	95	65.8	0	0	---	0.00	29.842 
19:50	67.1	67.1	67.1	95	65.6	0	0	---	0.01	29.842 
19:55	67.1	67.1	67.1	95	65.6	0	0	---	0.00	29.842 
20:00	67.1	67.1	67.1	95	65.6	0	0	---	0.01	29.839 
20:05	67.1	67.1	67.1	95	65.6	0	0	---	0.00	29.839 
20:10	67.1	67.1	67.1	95	65.6	0	0	---	0.00	29.839 
20:15	67.1	67.1	67.1	95	65.6	0	0	---	0.01	29.839 
20:20	66.9	66.9	66.9	95	65.4	0	0	---	0.01	29.839 
20:25	66.6	66.6	66.6	95	65.1	0	0	---	0.00	29.839 
20:30	66.4	66.4	66.4	95	64.9	0	0	---	0.00	29.837 
20:35	66.3	66.3	66.3	95	64.8	0	0	---	0.00	29.837 
20:40	66.3	66.3	66.3	95	64.8	0	0	---	0.00	29.837 
20:45	66.3	66.3	66.3	96	65.1	0	0	---	0.00	29.835 
20:50	66.3	66.3	66.3	95	64.8	0	0	---	0.00	29.835 
20:55	66.3	66.3	66.3	96	65.1	0	0	---	0.00	29.835 
21:00	66.1	66.1	66.1	96	64.9	0	0	---	0.00	29.835 
21:05	66.1	66.1	66.1	96	64.9	0	0	---	0.00	29.835 
21:10	66.1	66.1	66.1	96	64.9	0	0	---	0.00	29.835 
21:15	66.1	66.1	66.1	96	64.9	0	0	---	0.00	29.833 
21:20	66.1	66.1	66.1	96	64.9	0	0	---	0.00	29.833 
21:25	66.1	66.1	66.1	96	64.9	0	0	---	0.00	29.833 
21:30	66.0	66.0	66.0	96	64.8	0	0	---	0.00	29.834 
21:35	66.0	66.0	66.0	96	64.8	0	0	---	0.00	29.834 
21:40	66.0	66.0	66.0	96	64.8	0	0	---	0.00	29.834 
21:45	66.0	66.0	66.0	96	64.8	0	0	---	0.00	29.837 
21:50	66.0	66.0	66.0	96	64.8	0	0	---	0.00	29.837 
21:55	66.0	66.0	66.0	96	64.8	0	0	---	0.00	29.837 
22:00	66.0	66.0	66.0	96	64.8	0	0	---	0.00	29.837 
22:05	66.0	66.0	66.0	96	64.8	0	0	---	0.00	29.837 
22:10	66.0	66.0	66.0	96	64.8	0	0	---	0.00	29.837 
22:15	66.0	66.0	66.0	96	64.8	0	0	---	0.01	29.834 
22:20	66.0	66.0	66.0	96	64.8	0	0	---	0.00	29.834 
22:25	66.0	66.0	66.0	96	64.8	0	0	---	0.00	29.834 
22:30	66.0	66.0	66.0	96	64.8	0	0	---	0.00	29.834 
22:35	66.0	66.0	66.0	96	64.8	0	0	---	0.00	29.834 
22:40	66.0	66.0	66.0	96	64.8	0	0	---	0.00	29.834 
22:45	66.0	66.0	66.0	96	64.8	0	0	---	0.00	29.830 
22:50	66.0	66.0	66.0	96	64.8	0	0	---	0.00	29.830 
22:55	65.8	65.8	65.8	96	64.6	0	0	---	0.00	29.830 
23:00	65.8	65.8	65.8	96	64.6	0	0	---	0.00	29.830 
23:05	66.0	66.0	66.0	96	64.8	0	0	---	0.00	29.830 
23:10	66.0	66.0	66.0	96	64.8	0	0	---	0.00	29.830 
23:15	66.0	66.0	66.0	96	64.8	0	0	---	0.00	29.819 
23:20	66.0	66.0	66.0	96	64.8	0	0	---	0.00	29.819 
23:25	66.0	66.0	66.0	96	64.8	0	0	---	0.00	29.819 
23:30	66.0	66.0	66.0	96	64.8	0	0	---	0.00	29.818 
23:35	66.0	66.0	66.0	96	64.8	0	1	112	0.01	29.818 
23:40	66.0	66.0	66.0	96	64.8	0	0	---	0.00	29.818 
23:45	66.0	66.0	66.0	96	64.8	0	0	---	0.01	29.816 
23:50	66.0	66.0	66.0	96	64.8	0	0	---	0.00	29.816 
23:55	66.0	66.0	66.0	96	64.8	0	0	---	0.00	29.816 

CoCoRaHS
IN-AL-39
A2 Web Hosting
Creative Commons License
GoDaddy
search engine by freefind advanced

loaded 2018-11-15 13:32:19 • last modified 2010-11-18 10:43:29
Privacy PolicyDisclaimer
• wx.awcolley.com is powered by PmWiki v.2002016 •
• all content (unless otherwise noted) © 2018 A W Colley